sensor_id;sensor_type;location;lat;lon;timestamp;temperature;humidity
67249;SHT31;63247;54.300;18.592;2023-01-09T00:00:20;4.63;99.99
67249;SHT31;63247;54.300;18.592;2023-01-09T00:02:45;4.65;99.99
67249;SHT31;63247;54.300;18.592;2023-01-09T00:05:13;4.69;99.99
67249;SHT31;63247;54.300;18.592;2023-01-09T00:07:40;4.70;99.99
67249;SHT31;63247;54.300;18.592;2023-01-09T00:10:07;4.72;99.99
67249;SHT31;63247;54.300;18.592;2023-01-09T00:12:33;4.66;99.99
67249;SHT31;63247;54.300;18.592;2023-01-09T00:14:59;4.63;99.99
67249;SHT31;63247;54.300;18.592;2023-01-09T00:17:25;4.65;99.99
67249;SHT31;63247;54.300;18.592;2023-01-09T00:19:50;4.69;99.99
67249;SHT31;63247;54.300;18.592;2023-01-09T00:22:16;4.65;99.99
67249;SHT31;63247;54.300;18.592;2023-01-09T00:24:41;4.65;99.99
67249;SHT31;63247;54.300;18.592;2023-01-09T00:27:07;4.60;99.99
67249;SHT31;63247;54.300;18.592;2023-01-09T00:29:33;4.63;99.99
67249;SHT31;63247;54.300;18.592;2023-01-09T00:31:58;4.65;99.99
67249;SHT31;63247;54.300;18.592;2023-01-09T00:34:24;4.62;99.99
67249;SHT31;63247;54.300;18.592;2023-01-09T00:36:50;4.60;99.99
67249;SHT31;63247;54.300;18.592;2023-01-09T00:39:20;4.66;99.99
67249;SHT31;63247;54.300;18.592;2023-01-09T00:41:51;4.63;99.99
67249;SHT31;63247;54.300;18.592;2023-01-09T00:44:31;4.65;99.99
67249;SHT31;63247;54.300;18.592;2023-01-09T00:47:07;4.62;99.99
67249;SHT31;63247;54.300;18.592;2023-01-09T00:49:35;4.59;99.99
67249;SHT31;63247;54.300;18.592;2023-01-09T00:52:03;4.59;99.99
67249;SHT31;63247;54.300;18.592;2023-01-09T00:54:29;4.59;99.99
67249;SHT31;63247;54.300;18.592;2023-01-09T00:56:56;4.60;99.99
67249;SHT31;63247;54.300;18.592;2023-01-09T00:59:23;4.55;99.99
67249;SHT31;63247;54.300;18.592;2023-01-09T01:01:48;4.59;99.99
67249;SHT31;63247;54.300;18.592;2023-01-09T01:04:14;4.65;99.99
67249;SHT31;63247;54.300;18.592;2023-01-09T01:06:58;4.51;99.99
67249;SHT31;63247;54.300;18.592;2023-01-09T01:09:41;4.53;99.99
67249;SHT31;63247;54.300;18.592;2023-01-09T01:12:07;4.53;99.99
67249;SHT31;63247;54.300;18.592;2023-01-09T01:14:37;4.53;99.99
67249;SHT31;63247;54.300;18.592;2023-01-09T01:17:03;4.55;99.99
67249;SHT31;63247;54.300;18.592;2023-01-09T01:19:29;4.51;99.99
67249;SHT31;63247;54.300;18.592;2023-01-09T01:21:55;4.51;99.99
67249;SHT31;63247;54.300;18.592;2023-01-09T01:24:20;4.46;99.99
67249;SHT31;63247;54.300;18.592;2023-01-09T01:26:46;4.48;99.99
67249;SHT31;63247;54.300;18.592;2023-01-09T01:29:12;4.45;99.99
67249;SHT31;63247;54.300;18.592;2023-01-09T01:31:38;4.51;99.99
67249;SHT31;63247;54.300;18.592;2023-01-09T01:34:06;4.49;99.99
67249;SHT31;63247;54.300;18.592;2023-01-09T01:36:32;4.49;99.99
67249;SHT31;63247;54.300;18.592;2023-01-09T01:38:59;4.46;99.99
67249;SHT31;63247;54.300;18.592;2023-01-09T01:41:24;4.44;99.99
67249;SHT31;63247;54.300;18.592;2023-01-09T01:47:00;4.45;99.99
67249;SHT31;63247;54.300;18.592;2023-01-09T01:49:26;4.42;99.99
67249;SHT31;63247;54.300;18.592;2023-01-09T01:51:52;4.49;99.99
67249;SHT31;63247;54.300;18.592;2023-01-09T01:54:23;4.44;99.99
67249;SHT31;63247;54.300;18.592;2023-01-09T01:56:56;4.41;99.99
67249;SHT31;63247;54.300;18.592;2023-01-09T01:59:31;4.45;99.99
67249;SHT31;63247;54.300;18.592;2023-01-09T02:01:59;4.51;99.99
67249;SHT31;63247;54.300;18.592;2023-01-09T02:04:26;4.42;99.99
67249;SHT31;63247;54.300;18.592;2023-01-09T02:06:56;4.41;99.99
67249;SHT31;63247;54.300;18.592;2023-01-09T02:09:23;4.42;99.99
67249;SHT31;63247;54.300;18.592;2023-01-09T02:11:52;4.42;99.99
67249;SHT31;63247;54.300;18.592;2023-01-09T02:14:25;4.37;99.99
67249;SHT31;63247;54.300;18.592;2023-01-09T02:17:21;4.34;99.99
67249;SHT31;63247;54.300;18.592;2023-01-09T02:27:49;4.32;99.99
67249;SHT31;63247;54.300;18.592;2023-01-09T02:30:34;4.35;99.99
67249;SHT31;63247;54.300;18.592;2023-01-09T02:39:15;4.37;99.99
67249;SHT31;63247;54.300;18.592;2023-01-09T02:44:26;4.34;99.99
67249;SHT31;63247;54.300;18.592;2023-01-09T02:47:07;4.27;99.99
67249;SHT31;63247;54.300;18.592;2023-01-09T02:49:55;4.22;99.99
67249;SHT31;63247;54.300;18.592;2023-01-09T03:01:18;4.25;99.99
67249;SHT31;63247;54.300;18.592;2023-01-09T03:09:11;4.20;99.99
67249;SHT31;63247;54.300;18.592;2023-01-09T03:11:43;4.20;99.99
67249;SHT31;63247;54.300;18.592;2023-01-09T03:14:15;4.20;99.99
67249;SHT31;63247;54.300;18.592;2023-01-09T03:16:44;4.15;99.99
67249;SHT31;63247;54.300;18.592;2023-01-09T03:19:15;4.18;99.99
67249;SHT31;63247;54.300;18.592;2023-01-09T03:21:44;4.18;99.99
67249;SHT31;63247;54.300;18.592;2023-01-09T03:24:10;4.17;99.99
67249;SHT31;63247;54.300;18.592;2023-01-09T03:26:36;4.24;99.99
67249;SHT31;63247;54.300;18.592;2023-01-09T03:29:03;4.14;99.99
67249;SHT31;63247;54.300;18.592;2023-01-09T03:31:28;4.15;99.99
67249;SHT31;63247;54.300;18.592;2023-01-09T03:33:54;4.18;99.99
67249;SHT31;63247;54.300;18.592;2023-01-09T03:36:20;4.18;99.99
67249;SHT31;63247;54.300;18.592;2023-01-09T03:38:46;4.21;99.99
67249;SHT31;63247;54.300;18.592;2023-01-09T03:41:12;4.20;99.99
67249;SHT31;63247;54.300;18.592;2023-01-09T03:43:37;4.21;99.99
67249;SHT31;63247;54.300;18.592;2023-01-09T03:46:03;4.20;99.99
67249;SHT31;63247;54.300;18.592;2023-01-09T03:48:29;4.12;99.99
67249;SHT31;63247;54.300;18.592;2023-01-09T03:50:55;4.08;99.99
67249;SHT31;63247;54.300;18.592;2023-01-09T03:53:23;4.14;99.99
67249;SHT31;63247;54.300;18.592;2023-01-09T03:55:51;4.14;99.99
67249;SHT31;63247;54.300;18.592;2023-01-09T03:58:18;4.12;99.99
67249;SHT31;63247;54.300;18.592;2023-01-09T04:00:44;4.15;99.99
67249;SHT31;63247;54.300;18.592;2023-01-09T04:03:11;4.15;99.99
67249;SHT31;63247;54.300;18.592;2023-01-09T04:05:37;4.08;99.99
67249;SHT31;63247;54.300;18.592;2023-01-09T04:08:03;4.11;99.99
67249;SHT31;63247;54.300;18.592;2023-01-09T04:10:29;4.04;99.99
67249;SHT31;63247;54.300;18.592;2023-01-09T04:12:55;4.05;99.99
67249;SHT31;63247;54.300;18.592;2023-01-09T04:15:21;4.11;99.99
67249;SHT31;63247;54.300;18.592;2023-01-09T04:17:47;4.08;99.99
67249;SHT31;63247;54.300;18.592;2023-01-09T04:20:12;4.14;99.99
67249;SHT31;63247;54.300;18.592;2023-01-09T04:22:38;4.15;99.99
67249;SHT31;63247;54.300;18.592;2023-01-09T04:25:04;4.11;99.99
67249;SHT31;63247;54.300;18.592;2023-01-09T04:27:30;4.12;99.99
67249;SHT31;63247;54.300;18.592;2023-01-09T04:29:55;4.11;99.99
67249;SHT31;63247;54.300;18.592;2023-01-09T04:32:21;4.12;99.99
67249;SHT31;63247;54.300;18.592;2023-01-09T04:34:46;4.11;99.99
67249;SHT31;63247;54.300;18.592;2023-01-09T04:37:12;4.08;99.99
67249;SHT31;63247;54.300;18.592;2023-01-09T04:39:38;4.08;99.99
67249;SHT31;63247;54.300;18.592;2023-01-09T04:42:07;4.07;99.99
67249;SHT31;63247;54.300;18.592;2023-01-09T04:44:33;4.02;99.99
67249;SHT31;63247;54.300;18.592;2023-01-09T04:46:59;4.15;99.99
67249;SHT31;63247;54.300;18.592;2023-01-09T04:49:24;4.18;99.99
67249;SHT31;63247;54.300;18.592;2023-01-09T04:51:50;4.12;99.99
67249;SHT31;63247;54.300;18.592;2023-01-09T04:54:16;4.20;99.99
67249;SHT31;63247;54.300;18.592;2023-01-09T04:56:42;4.12;99.99
67249;SHT31;63247;54.300;18.592;2023-01-09T04:59:08;4.11;99.99
67249;SHT31;63247;54.300;18.592;2023-01-09T05:01:34;4.15;99.99
67249;SHT31;63247;54.300;18.592;2023-01-09T05:04:00;4.15;99.99
67249;SHT31;63247;54.300;18.592;2023-01-09T05:06:25;4.11;99.99
67249;SHT31;63247;54.300;18.592;2023-01-09T05:08:51;4.18;99.99
67249;SHT31;63247;54.300;18.592;2023-01-09T05:11:16;4.12;99.99
67249;SHT31;63247;54.300;18.592;2023-01-09T05:13:42;4.15;99.99
67249;SHT31;63247;54.300;18.592;2023-01-09T05:16:08;4.15;99.99
67249;SHT31;63247;54.300;18.592;2023-01-09T05:18:33;4.14;99.99
67249;SHT31;63247;54.300;18.592;2023-01-09T05:20:59;4.14;99.99
67249;SHT31;63247;54.300;18.592;2023-01-09T05:23:25;4.20;99.99
67249;SHT31;63247;54.300;18.592;2023-01-09T05:25:51;4.14;99.99
67249;SHT31;63247;54.300;18.592;2023-01-09T05:28:16;4.15;99.99
67249;SHT31;63247;54.300;18.592;2023-01-09T05:30:42;4.15;99.99
67249;SHT31;63247;54.300;18.592;2023-01-09T05:33:07;4.11;99.99
67249;SHT31;63247;54.300;18.592;2023-01-09T05:35:33;4.12;99.99
67249;SHT31;63247;54.300;18.592;2023-01-09T05:37:58;4.14;99.99
67249;SHT31;63247;54.300;18.592;2023-01-09T05:40:24;4.15;99.99
67249;SHT31;63247;54.300;18.592;2023-01-09T05:42:49;4.10;99.99
67249;SHT31;63247;54.300;18.592;2023-01-09T05:45:15;4.14;99.99
67249;SHT31;63247;54.300;18.592;2023-01-09T05:47:44;4.11;99.99
67249;SHT31;63247;54.300;18.592;2023-01-09T05:50:11;4.12;99.99
67249;SHT31;63247;54.300;18.592;2023-01-09T05:52:37;4.10;99.99
67249;SHT31;63247;54.300;18.592;2023-01-09T05:55:03;4.12;99.99
67249;SHT31;63247;54.300;18.592;2023-01-09T05:57:29;4.14;99.99
67249;SHT31;63247;54.300;18.592;2023-01-09T05:59:55;4.10;99.99
67249;SHT31;63247;54.300;18.592;2023-01-09T06:02:20;4.14;99.99
67249;SHT31;63247;54.300;18.592;2023-01-09T06:04:46;4.12;99.99
67249;SHT31;63247;54.300;18.592;2023-01-09T06:07:11;4.11;99.99
67249;SHT31;63247;54.300;18.592;2023-01-09T06:09:37;4.10;99.99
67249;SHT31;63247;54.300;18.592;2023-01-09T06:12:02;4.12;99.99
67249;SHT31;63247;54.300;18.592;2023-01-09T06:14:28;4.08;99.99
67249;SHT31;63247;54.300;18.592;2023-01-09T06:16:54;4.10;99.99
67249;SHT31;63247;54.300;18.592;2023-01-09T06:19:19;4.10;99.99
67249;SHT31;63247;54.300;18.592;2023-01-09T06:21:45;4.07;99.99
67249;SHT31;63247;54.300;18.592;2023-01-09T06:24:10;4.04;99.99
67249;SHT31;63247;54.300;18.592;2023-01-09T06:26:36;4.04;99.99
67249;SHT31;63247;54.300;18.592;2023-01-09T06:29:02;4.10;99.99
67249;SHT31;63247;54.300;18.592;2023-01-09T06:31:27;4.04;99.99
67249;SHT31;63247;54.300;18.592;2023-01-09T06:33:53;4.14;99.99
67249;SHT31;63247;54.300;18.592;2023-01-09T06:36:18;4.08;99.99
67249;SHT31;63247;54.300;18.592;2023-01-09T06:38:44;4.05;99.99
67249;SHT31;63247;54.300;18.592;2023-01-09T06:41:09;4.01;99.99
67249;SHT31;63247;54.300;18.592;2023-01-09T06:43:35;4.00;99.99
67249;SHT31;63247;54.300;18.592;2023-01-09T06:46:00;4.02;99.99
67249;SHT31;63247;54.300;18.592;2023-01-09T06:48:26;4.04;99.99
67249;SHT31;63247;54.300;18.592;2023-01-09T06:50:52;4.02;99.99
67249;SHT31;63247;54.300;18.592;2023-01-09T06:53:19;4.02;99.99
67249;SHT31;63247;54.300;18.592;2023-01-09T06:55:45;4.04;99.99
67249;SHT31;63247;54.300;18.592;2023-01-09T06:58:11;4.01;99.99
67249;SHT31;63247;54.300;18.592;2023-01-09T07:00:37;4.08;99.99
67249;SHT31;63247;54.300;18.592;2023-01-09T07:03:02;4.04;99.99
67249;SHT31;63247;54.300;18.592;2023-01-09T07:05:29;4.05;99.99
67249;SHT31;63247;54.300;18.592;2023-01-09T07:07:54;4.05;99.99
67249;SHT31;63247;54.300;18.592;2023-01-09T07:10:21;4.05;99.99
67249;SHT31;63247;54.300;18.592;2023-01-09T07:12:47;4.00;99.99
67249;SHT31;63247;54.300;18.592;2023-01-09T07:15:12;4.01;99.99
67249;SHT31;63247;54.300;18.592;2023-01-09T07:17:38;4.04;99.99
67249;SHT31;63247;54.300;18.592;2023-01-09T07:20:04;4.05;99.99
67249;SHT31;63247;54.300;18.592;2023-01-09T07:22:29;4.00;99.99
67249;SHT31;63247;54.300;18.592;2023-01-09T07:24:55;3.97;99.99
67249;SHT31;63247;54.300;18.592;2023-01-09T07:27:20;3.95;99.99
67249;SHT31;63247;54.300;18.592;2023-01-09T07:29:46;4.02;99.99
67249;SHT31;63247;54.300;18.592;2023-01-09T07:32:12;4.00;99.99
67249;SHT31;63247;54.300;18.592;2023-01-09T07:34:37;3.98;99.99
67249;SHT31;63247;54.300;18.592;2023-01-09T07:37:03;4.04;99.99
67249;SHT31;63247;54.300;18.592;2023-01-09T07:39:28;4.04;99.99
67249;SHT31;63247;54.300;18.592;2023-01-09T07:41:54;4.02;99.99
67249;SHT31;63247;54.300;18.592;2023-01-09T07:44:19;4.10;99.99
67249;SHT31;63247;54.300;18.592;2023-01-09T07:46:45;4.02;99.99
67249;SHT31;63247;54.300;18.592;2023-01-09T07:49:10;4.02;99.99
67249;SHT31;63247;54.300;18.592;2023-01-09T07:51:36;4.10;99.99
67249;SHT31;63247;54.300;18.592;2023-01-09T07:54:07;4.11;99.99
67249;SHT31;63247;54.300;18.592;2023-01-09T07:56:33;4.04;99.99
67249;SHT31;63247;54.300;18.592;2023-01-09T07:58:58;4.01;99.99
67249;SHT31;63247;54.300;18.592;2023-01-09T08:01:24;4.01;99.99
67249;SHT31;63247;54.300;18.592;2023-01-09T08:03:49;3.98;99.99
67249;SHT31;63247;54.300;18.592;2023-01-09T08:06:15;3.98;99.99
67249;SHT31;63247;54.300;18.592;2023-01-09T08:08:40;4.01;99.99
67249;SHT31;63247;54.300;18.592;2023-01-09T08:11:07;3.98;99.99
67249;SHT31;63247;54.300;18.592;2023-01-09T08:13:33;4.04;99.99
67249;SHT31;63247;54.300;18.592;2023-01-09T08:15:58;4.01;99.99
67249;SHT31;63247;54.300;18.592;2023-01-09T08:18:24;3.98;99.99
67249;SHT31;63247;54.300;18.592;2023-01-09T08:20:49;3.98;99.99
67249;SHT31;63247;54.300;18.592;2023-01-09T08:23:15;3.94;99.99
67249;SHT31;63247;54.300;18.592;2023-01-09T08:25:40;3.93;99.99
67249;SHT31;63247;54.300;18.592;2023-01-09T08:28:06;3.91;99.99
67249;SHT31;63247;54.300;18.592;2023-01-09T08:30:34;3.94;99.99
67249;SHT31;63247;54.300;18.592;2023-01-09T08:32:59;3.87;99.99
67249;SHT31;63247;54.300;18.592;2023-01-09T08:35:25;3.93;99.99
67249;SHT31;63247;54.300;18.592;2023-01-09T08:37:50;3.90;99.99
67249;SHT31;63247;54.300;18.592;2023-01-09T08:40:16;3.91;99.99
67249;SHT31;63247;54.300;18.592;2023-01-09T08:42:42;3.90;99.99
67249;SHT31;63247;54.300;18.592;2023-01-09T08:45:26;3.86;99.99
67249;SHT31;63247;54.300;18.592;2023-01-09T08:48:10;3.89;99.99
67249;SHT31;63247;54.300;18.592;2023-01-09T08:50:36;3.77;99.99
67249;SHT31;63247;54.300;18.592;2023-01-09T08:53:02;3.81;99.99
67249;SHT31;63247;54.300;18.592;2023-01-09T08:55:27;3.83;99.99
67249;SHT31;63247;54.300;18.592;2023-01-09T08:57:53;3.80;99.99
67249;SHT31;63247;54.300;18.592;2023-01-09T09:00:21;3.76;99.99
67249;SHT31;63247;54.300;18.592;2023-01-09T09:02:54;3.80;99.99
67249;SHT31;63247;54.300;18.592;2023-01-09T09:05:21;3.80;99.99
67249;SHT31;63247;54.300;18.592;2023-01-09T09:07:48;3.76;99.99
67249;SHT31;63247;54.300;18.592;2023-01-09T09:10:18;3.74;99.99
67249;SHT31;63247;54.300;18.592;2023-01-09T09:12:46;3.77;99.99
67249;SHT31;63247;54.300;18.592;2023-01-09T09:15:12;3.76;99.99
67249;SHT31;63247;54.300;18.592;2023-01-09T09:17:41;3.76;99.99
67249;SHT31;63247;54.300;18.592;2023-01-09T09:20:08;3.77;99.99
67249;SHT31;63247;54.300;18.592;2023-01-09T09:22:34;3.76;99.99
67249;SHT31;63247;54.300;18.592;2023-01-09T09:24:59;3.79;99.99
67249;SHT31;63247;54.300;18.592;2023-01-09T09:27:25;3.76;99.99
67249;SHT31;63247;54.300;18.592;2023-01-09T09:29:51;3.74;99.99
67249;SHT31;63247;54.300;18.592;2023-01-09T09:32:16;3.73;99.99
67249;SHT31;63247;54.300;18.592;2023-01-09T09:34:42;3.70;99.99
67249;SHT31;63247;54.300;18.592;2023-01-09T09:37:07;3.69;99.99
67249;SHT31;63247;54.300;18.592;2023-01-09T09:39:33;3.67;99.99
67249;SHT31;63247;54.300;18.592;2023-01-09T09:47:57;3.59;99.99
67249;SHT31;63247;54.300;18.592;2023-01-09T09:53:19;3.58;99.99
67249;SHT31;63247;54.300;18.592;2023-01-09T09:55:47;3.59;99.99
67249;SHT31;63247;54.300;18.592;2023-01-09T10:00:54;3.63;99.99
67249;SHT31;63247;54.300;18.592;2023-01-09T10:03:27;3.66;99.99
67249;SHT31;63247;54.300;18.592;2023-01-09T10:05:56;3.59;99.99
67249;SHT31;63247;54.300;18.592;2023-01-09T10:11:02;3.63;99.99
67249;SHT31;63247;54.300;18.592;2023-01-09T10:13:28;3.66;99.99
67249;SHT31;63247;54.300;18.592;2023-01-09T10:22:06;3.73;99.99
67249;SHT31;63247;54.300;18.592;2023-01-09T10:24:56;3.70;99.99
67249;SHT31;63247;54.300;18.592;2023-01-09T10:27:40;3.69;99.99
67249;SHT31;63247;54.300;18.592;2023-01-09T10:30:15;3.67;99.99
67249;SHT31;63247;54.300;18.592;2023-01-09T10:32:53;3.72;99.99
67249;SHT31;63247;54.300;18.592;2023-01-09T10:38:08;3.73;99.99
67249;SHT31;63247;54.300;18.592;2023-01-09T10:40:39;3.73;99.99
67249;SHT31;63247;54.300;18.592;2023-01-09T10:46:24;3.73;99.99
67249;SHT31;63247;54.300;18.592;2023-01-09T10:48:55;3.70;99.99
67249;SHT31;63247;54.300;18.592;2023-01-09T10:51:30;3.80;99.99
67249;SHT31;63247;54.300;18.592;2023-01-09T10:53:56;3.77;99.99
67249;SHT31;63247;54.300;18.592;2023-01-09T10:56:25;3.81;99.99
67249;SHT31;63247;54.300;18.592;2023-01-09T10:58:52;3.76;99.99
67249;SHT31;63247;54.300;18.592;2023-01-09T11:01:32;3.73;99.99
67249;SHT31;63247;54.300;18.592;2023-01-09T11:03:59;3.77;99.99
67249;SHT31;63247;54.300;18.592;2023-01-09T11:06:54;3.77;99.99
67249;SHT31;63247;54.300;18.592;2023-01-09T11:09:21;3.74;99.99
67249;SHT31;63247;54.300;18.592;2023-01-09T11:11:46;3.72;99.99
67249;SHT31;63247;54.300;18.592;2023-01-09T11:14:26;3.74;99.99
67249;SHT31;63247;54.300;18.592;2023-01-09T11:16:57;3.76;99.99
67249;SHT31;63247;54.300;18.592;2023-01-09T11:19:24;3.69;99.99
67249;SHT31;63247;54.300;18.592;2023-01-09T11:22:10;3.76;99.99
67249;SHT31;63247;54.300;18.592;2023-01-09T11:24:38;3.77;99.99
67249;SHT31;63247;54.300;18.592;2023-01-09T11:27:18;3.77;99.99
67249;SHT31;63247;54.300;18.592;2023-01-09T11:32:35;3.79;99.99
67249;SHT31;63247;54.300;18.592;2023-01-09T11:35:05;3.76;99.99
67249;SHT31;63247;54.300;18.592;2023-01-09T11:37:31;3.79;99.99
67249;SHT31;63247;54.300;18.592;2023-01-09T11:39:58;3.80;99.99
67249;SHT31;63247;54.300;18.592;2023-01-09T11:42:26;3.80;99.99
67249;SHT31;63247;54.300;18.592;2023-01-09T11:45:18;3.89;99.99
67249;SHT31;63247;54.300;18.592;2023-01-09T11:47:44;3.87;99.99
67249;SHT31;63247;54.300;18.592;2023-01-09T11:50:16;3.89;99.99
67249;SHT31;63247;54.300;18.592;2023-01-09T11:52:42;3.94;99.99
67249;SHT31;63247;54.300;18.592;2023-01-09T11:55:13;3.87;99.99
67249;SHT31;63247;54.300;18.592;2023-01-09T11:57:40;3.84;99.99
67249;SHT31;63247;54.300;18.592;2023-01-09T12:00:26;3.81;99.99
67249;SHT31;63247;54.300;18.592;2023-01-09T12:05:33;3.84;99.99
67249;SHT31;63247;54.300;18.592;2023-01-09T12:19:05;3.87;99.99
67249;SHT31;63247;54.300;18.592;2023-01-09T12:29:33;3.87;99.99
67249;SHT31;63247;54.300;18.592;2023-01-09T12:45:44;3.90;99.99
67249;SHT31;63247;54.300;18.592;2023-01-09T12:54:25;3.90;99.99
67249;SHT31;63247;54.300;18.592;2023-01-09T12:57:00;3.87;99.99
67249;SHT31;63247;54.300;18.592;2023-01-09T13:04:37;3.90;99.99
67249;SHT31;63247;54.300;18.592;2023-01-09T13:07:10;3.90;99.99
67249;SHT31;63247;54.300;18.592;2023-01-09T13:09:43;3.95;99.99
67249;SHT31;63247;54.300;18.592;2023-01-09T13:12:13;3.94;99.99
67249;SHT31;63247;54.300;18.592;2023-01-09T13:14:45;3.91;99.99
67249;SHT31;63247;54.300;18.592;2023-01-09T13:17:29;3.93;99.99
67249;SHT31;63247;54.300;18.592;2023-01-09T13:19:55;3.95;99.99
67249;SHT31;63247;54.300;18.592;2023-01-09T13:22:26;3.94;99.99
67249;SHT31;63247;54.300;18.592;2023-01-09T13:25:15;3.93;99.99
67249;SHT31;63247;54.300;18.592;2023-01-09T13:27:51;3.93;99.99
67249;SHT31;63247;54.300;18.592;2023-01-09T13:35:49;3.97;99.99
67249;SHT31;63247;54.300;18.592;2023-01-09T13:38:23;3.98;99.99
67249;SHT31;63247;54.300;18.592;2023-01-09T13:44:01;4.01;99.99
67249;SHT31;63247;54.300;18.592;2023-01-09T13:46:39;4.02;99.99
67249;SHT31;63247;54.300;18.592;2023-01-09T13:49:05;3.93;99.99
67249;SHT31;63247;54.300;18.592;2023-01-09T13:51:57;3.97;99.99
67249;SHT31;63247;54.300;18.592;2023-01-09T13:59:52;3.98;99.99
67249;SHT31;63247;54.300;18.592;2023-01-09T14:05:15;3.98;99.99
67249;SHT31;63247;54.300;18.592;2023-01-09T14:08:03;3.97;99.99
67249;SHT31;63247;54.300;18.592;2023-01-09T14:10:36;3.91;99.99
67249;SHT31;63247;54.300;18.592;2023-01-09T14:13:10;3.98;99.99
67249;SHT31;63247;54.300;18.592;2023-01-09T14:15:39;3.97;99.99
67249;SHT31;63247;54.300;18.592;2023-01-09T14:23:33;3.91;99.99
67249;SHT31;63247;54.300;18.592;2023-01-09T14:26:00;3.90;99.99
67249;SHT31;63247;54.300;18.592;2023-01-09T14:28:28;4.00;99.99
67249;SHT31;63247;54.300;18.592;2023-01-09T14:46:55;4.04;99.99
67249;SHT31;63247;54.300;18.592;2023-01-09T14:52:32;4.05;99.99
67249;SHT31;63247;54.300;18.592;2023-01-09T14:55:02;3.91;99.99
67249;SHT31;63247;54.300;18.592;2023-01-09T14:57:30;4.01;99.99
67249;SHT31;63247;54.300;18.592;2023-01-09T15:00:15;4.00;99.99
67249;SHT31;63247;54.300;18.592;2023-01-09T15:02:42;3.94;99.99
67249;SHT31;63247;54.300;18.592;2023-01-09T15:05:18;4.07;99.99
67249;SHT31;63247;54.300;18.592;2023-01-09T15:08:01;4.08;99.99
67249;SHT31;63247;54.300;18.592;2023-01-09T15:10:29;4.07;99.99
67249;SHT31;63247;54.300;18.592;2023-01-09T15:12:57;4.05;99.99
67249;SHT31;63247;54.300;18.592;2023-01-09T15:15:25;4.05;99.99
67249;SHT31;63247;54.300;18.592;2023-01-09T15:17:58;4.05;99.99
67249;SHT31;63247;54.300;18.592;2023-01-09T15:20:25;4.04;99.99
67249;SHT31;63247;54.300;18.592;2023-01-09T15:22:53;4.11;99.99
67249;SHT31;63247;54.300;18.592;2023-01-09T15:27:52;4.10;99.99
67249;SHT31;63247;54.300;18.592;2023-01-09T15:30:28;4.05;99.99
67249;SHT31;63247;54.300;18.592;2023-01-09T15:33:00;4.08;99.99
67249;SHT31;63247;54.300;18.592;2023-01-09T15:35:28;4.10;99.99
67249;SHT31;63247;54.300;18.592;2023-01-09T15:37:54;4.10;99.99
67249;SHT31;63247;54.300;18.592;2023-01-09T15:40:29;4.08;99.99
67249;SHT31;63247;54.300;18.592;2023-01-09T15:42:57;4.02;99.99
67249;SHT31;63247;54.300;18.592;2023-01-09T15:50:43;4.15;99.99
67249;SHT31;63247;54.300;18.592;2023-01-09T15:53:28;4.15;99.99
67249;SHT31;63247;54.300;18.592;2023-01-09T15:56:04;4.07;99.99
67249;SHT31;63247;54.300;18.592;2023-01-09T15:58:44;4.18;99.99
67249;SHT31;63247;54.300;18.592;2023-01-09T16:01:31;4.15;99.99
67249;SHT31;63247;54.300;18.592;2023-01-09T16:06:37;4.18;99.99
67249;SHT31;63247;54.300;18.592;2023-01-09T16:09:29;4.14;99.99
67249;SHT31;63247;54.300;18.592;2023-01-09T16:12:02;4.07;99.99
67249;SHT31;63247;54.300;18.592;2023-01-09T16:14:39;4.07;99.99
67249;SHT31;63247;54.300;18.592;2023-01-09T16:17:12;4.18;99.99
67249;SHT31;63247;54.300;18.592;2023-01-09T16:24:48;4.11;99.99
67249;SHT31;63247;54.300;18.592;2023-01-09T16:29:54;4.14;99.99
67249;SHT31;63247;54.300;18.592;2023-01-09T16:32:32;3.98;99.99
67249;SHT31;63247;54.300;18.592;2023-01-09T16:35:00;4.00;99.99
67249;SHT31;63247;54.300;18.592;2023-01-09T16:37:27;4.01;99.99
67249;SHT31;63247;54.300;18.592;2023-01-09T16:42:33;4.08;99.99
67249;SHT31;63247;54.300;18.592;2023-01-09T16:45:18;4.05;99.99
67249;SHT31;63247;54.300;18.592;2023-01-09T16:47:44;4.05;99.99
67249;SHT31;63247;54.300;18.592;2023-01-09T16:50:11;4.08;99.99
67249;SHT31;63247;54.300;18.592;2023-01-09T16:52:37;4.08;99.99
67249;SHT31;63247;54.300;18.592;2023-01-09T16:55:03;4.02;99.99
67249;SHT31;63247;54.300;18.592;2023-01-09T16:57:30;4.11;99.99
67249;SHT31;63247;54.300;18.592;2023-01-09T16:59:56;4.05;99.99
67249;SHT31;63247;54.300;18.592;2023-01-09T17:02:24;4.05;99.99
67249;SHT31;63247;54.300;18.592;2023-01-09T17:04:50;4.11;99.99
67249;SHT31;63247;54.300;18.592;2023-01-09T17:07:16;4.12;99.99
67249;SHT31;63247;54.300;18.592;2023-01-09T17:09:43;4.04;99.99
67249;SHT31;63247;54.300;18.592;2023-01-09T17:12:18;3.95;99.99
67249;SHT31;63247;54.300;18.592;2023-01-09T17:14:48;3.97;99.99
67249;SHT31;63247;54.300;18.592;2023-01-09T17:17:14;4.01;99.99
67249;SHT31;63247;54.300;18.592;2023-01-09T17:19:40;3.94;99.99
67249;SHT31;63247;54.300;18.592;2023-01-09T17:22:07;3.95;99.99
67249;SHT31;63247;54.300;18.592;2023-01-09T17:24:33;4.02;99.99
67249;SHT31;63247;54.300;18.592;2023-01-09T17:27:29;4.07;99.99
67249;SHT31;63247;54.300;18.592;2023-01-09T17:30:14;3.98;99.99
67249;SHT31;63247;54.300;18.592;2023-01-09T17:32:40;4.02;99.99
67249;SHT31;63247;54.300;18.592;2023-01-09T17:35:11;4.05;99.99
67249;SHT31;63247;54.300;18.592;2023-01-09T17:37:37;4.04;99.99
67249;SHT31;63247;54.300;18.592;2023-01-09T17:40:05;4.07;99.99
67249;SHT31;63247;54.300;18.592;2023-01-09T17:42:37;4.00;99.99
67249;SHT31;63247;54.300;18.592;2023-01-09T17:45:03;3.95;99.99
67249;SHT31;63247;54.300;18.592;2023-01-09T17:47:28;3.97;99.99
67249;SHT31;63247;54.300;18.592;2023-01-09T17:49:54;3.94;99.99
67249;SHT31;63247;54.300;18.592;2023-01-09T17:52:19;4.04;99.99
67249;SHT31;63247;54.300;18.592;2023-01-09T17:54:46;4.08;99.99
67249;SHT31;63247;54.300;18.592;2023-01-09T17:57:15;4.08;99.99
67249;SHT31;63247;54.300;18.592;2023-01-09T17:59:42;4.02;99.99
67249;SHT31;63247;54.300;18.592;2023-01-09T18:02:18;3.97;99.99
67249;SHT31;63247;54.300;18.592;2023-01-09T18:04:44;4.01;99.99
67249;SHT31;63247;54.300;18.592;2023-01-09T18:07:19;3.94;99.99
67249;SHT31;63247;54.300;18.592;2023-01-09T18:09:44;3.97;99.99
67249;SHT31;63247;54.300;18.592;2023-01-09T18:12:10;4.07;99.99
67249;SHT31;63247;54.300;18.592;2023-01-09T18:14:36;4.04;99.99
67249;SHT31;63247;54.300;18.592;2023-01-09T18:17:03;3.94;99.99
67249;SHT31;63247;54.300;18.592;2023-01-09T18:19:30;4.00;99.99
67249;SHT31;63247;54.300;18.592;2023-01-09T18:21:56;3.97;99.99
67249;SHT31;63247;54.300;18.592;2023-01-09T18:24:23;3.94;99.99
67249;SHT31;63247;54.300;18.592;2023-01-09T18:26:49;4.04;99.99
67249;SHT31;63247;54.300;18.592;2023-01-09T18:29:14;3.98;99.99
67249;SHT31;63247;54.300;18.592;2023-01-09T18:31:40;4.00;99.99